Time;durP1;ratioP1;P1;durP2;ratioP2;P2;SDS_P1;SDS_P2;PMS_P1;PMS_P2;Temp;Humidity;BMP_temperature;BMP_pressure;BME280_temperature;BME280_humidity;BME280_pressure;Samples;Min_cycle;Max_cycle;Signal;HPM_P1;HPM_P2
2022/01/03 00:01:45;;;;;;;8.40;5.03;;;;;;;9.48;100.00;101315.13;5210464;28;20021;-59
2022/01/03 00:04:16;;;;;;;17.30;6.55;;;;;;;9.47;100.00;101316.19;5209201;28;20032;-59
2022/01/03 00:06:48;;;;;;;17.20;6.72;;;;;;;9.45;100.00;101328.25;5210366;28;20063;-59
2022/01/03 00:09:20;;;;;;;13.77;5.47;;;;;;;9.39;100.00;101315.72;5224007;22;20012;-63
2022/01/03 00:11:51;;;;;;;8.20;4.68;;;;;;;9.42;100.00;101323.34;5217121;28;20119;-62
2022/01/03 00:14:27;;;;;;;12.00;4.90;;;;;;;9.47;100.00;101326.97;5230764;28;20032;-62
2022/01/03 00:16:57;;;;;;;18.70;7.47;;;;;;;9.45;100.00;101334.47;5231508;28;20060;-62
2022/01/03 00:19:27;;;;;;;15.88;5.55;;;;;;;9.44;100.00;101327.44;5231532;28;20121;-63
2022/01/03 00:22:04;;;;;;;15.65;7.32;;;;;;;9.41;100.00;101338.69;5230998;28;20032;-62
2022/01/03 00:24:36;;;;;;;10.25;5.28;;;;;;;9.35;100.00;101323.44;5249001;28;20399;-62
2022/01/03 00:27:14;;;;;;;18.02;7.65;;;;;;;9.41;100.00;101333.28;5230872;28;20496;-60
2022/01/03 00:29:50;;;;;;;12.40;5.18;;;;;;;9.39;100.00;101329.19;5230922;28;20033;-62
2022/01/03 00:32:22;;;;;;;30.17;7.22;;;;;;;9.35;100.00;101334.22;5230785;28;20070;-60
2022/01/03 00:34:55;;;;;;;9.70;5.85;;;;;;;9.25;100.00;101317.84;5230521;28;20125;-62
2022/01/03 00:37:27;;;;;;;8.57;5.30;;;;;;;9.19;100.00;101328.75;5230933;28;20024;-62
2022/01/03 00:39:59;;;;;;;14.75;6.68;;;;;;;9.07;100.00;101332.25;5230525;28;20044;-61
2022/01/03 00:42:31;;;;;;;12.88;6.45;;;;;;;9.03;100.00;101335.66;5230737;28;20514;-63
2022/01/03 00:45:03;;;;;;;7.90;6.18;;;;;;;8.95;100.00;101322.56;5230164;28;20119;-63
2022/01/03 00:47:35;;;;;;;14.50;6.00;;;;;;;8.93;100.00;101332.75;5230872;28;20031;-62
2022/01/03 00:50:11;;;;;;;23.05;6.82;;;;;;;8.73;100.00;101306.13;5230506;28;20388;-63
2022/01/03 00:52:42;;;;;;;13.35;5.72;;;;;;;8.86;100.00;101318.56;5230550;28;20021;-63
2022/01/03 00:55:13;;;;;;;21.92;7.35;;;;;;;8.80;100.00;101333.78;5230100;28;20029;-62
2022/01/03 00:57:56;;;;;;;8.40;5.45;;;;;;;8.83;100.00;101332.50;5230184;28;20472;-62
2022/01/03 01:00:31;;;;;;;13.68;7.15;;;;;;;8.82;100.00;101347.00;5230270;28;20492;-62
2022/01/03 01:03:10;;;;;;;20.48;7.32;;;;;;;8.75;100.00;101334.47;5230530;28;20020;-62
2022/01/03 01:05:44;;;;;;;10.80;5.23;;;;;;;8.65;100.00;101334.22;5229976;28;20028;-62
2022/01/03 01:08:20;;;;;;;15.80;7.07;;;;;;;8.52;100.00;101326.34;5230273;28;20029;-62
2022/01/03 01:10:51;;;;;;;9.43;6.20;;;;;;;8.57;100.00;101339.94;5230230;28;20027;-61
2022/01/03 01:13:22;;;;;;;18.13;6.82;;;;;;;8.64;100.00;101343.38;5229721;28;20476;-63
2022/01/03 01:15:52;;;;;;;11.32;5.03;;;;;;;8.68;100.00;101349.06;5229169;28;20055;-61
2022/01/03 01:18:24;;;;;;;14.35;6.63;;;;;;;8.70;100.00;101346.97;5230068;28;20031;-61
2022/01/03 01:20:54;;;;;;;11.15;5.72;;;;;;;8.70;100.00;101347.78;5230057;28;20020;-62
2022/01/03 01:23:25;;;;;;;8.00;5.25;;;;;;;8.63;100.00;101347.09;5229687;28;20067;-62
2022/01/03 01:28:45;;;;;;;20.33;6.60;;;;;;;8.49;100.00;101328.69;5248102;28;20055;-63
2022/01/03 01:31:20;;;;;;;8.60;5.25;;;;;;;8.50;100.00;101336.53;5229650;28;20025;-61
2022/01/03 01:33:54;;;;;;;6.78;4.13;;;;;;;8.57;100.00;101356.09;5229529;28;20051;-62
2022/01/03 01:36:29;;;;;;;15.93;6.82;;;;;;;8.58;100.00;101343.47;5247657;28;20107;-62
2022/01/03 01:39:04;;;;;;;14.60;5.55;;;;;;;8.70;100.00;101360.44;5247463;28;20016;-63
2022/01/03 01:41:37;;;;;;;26.77;9.00;;;;;;;8.76;100.00;101351.44;5229406;28;20028;-63
2022/01/03 01:44:10;;;;;;;9.40;4.10;;;;;;;8.80;100.00;101355.31;5229637;28;20024;-62
2022/01/03 01:46:52;;;;;;;10.90;5.10;;;;;;;8.95;100.00;101349.50;5229679;28;20099;-63
2022/01/03 01:49:26;;;;;;;13.23;6.15;;;;;;;9.00;100.00;101349.59;5229163;28;20024;-62
2022/01/03 01:52:02;;;;;;;12.93;5.60;;;;;;;8.99;100.00;101345.25;5229237;28;20115;-62
2022/01/03 01:54:37;;;;;;;12.07;5.97;;;;;;;9.02;100.00;101351.00;5229167;28;20032;-63
2022/01/03 01:57:07;;;;;;;9.20;4.65;;;;;;;9.07;100.00;101353.00;5229110;28;20036;-62
2022/01/03 01:59:51;;;;;;;13.55;6.13;;;;;;;9.10;100.00;101352.53;5229313;28;20031;-62
2022/01/03 02:02:35;;;;;;;9.95;4.38;;;;;;;9.14;100.00;101345.63;5229274;28;20056;-62
2022/01/03 02:05:16;;;;;;;13.68;6.45;;;;;;;9.23;100.00;101341.53;5229056;28;20395;-63
2022/01/03 02:08:05;;;;;;;12.70;6.38;;;;;;;9.25;100.00;101357.44;5229159;28;20082;-62
2022/01/03 02:10:42;;;;;;;17.97;7.50;;;;;;;9.16;100.00;101348.09;5229339;28;20024;-64
2022/01/03 02:13:19;;;;;;;12.50;5.22;;;;;;;9.03;100.00;101357.19;5229561;28;20024;-63
2022/01/03 02:15:58;;;;;;;21.15;5.57;;;;;;;8.97;100.00;101337.41;5229318;28;20036;-63
2022/01/03 02:18:29;;;;;;;17.08;7.55;;;;;;;9.07;100.00;101353.81;5229226;28;20024;-65
2022/01/03 02:21:02;;;;;;;17.30;6.70;;;;;;;9.00;100.00;101353.09;5229442;28;20177;-64
2022/01/03 02:23:34;;;;;;;19.00;6.90;;;;;;;8.99;100.00;101356.03;5229144;28;20373;-64
2022/01/03 02:26:04;;;;;;;13.20;4.53;;;;;;;8.97;100.00;101336.59;5229605;28;20024;-63
2022/01/03 02:28:35;;;;;;;11.70;5.10;;;;;;;9.07;100.00;101353.81;5228970;28;20542;-64
2022/01/03 02:31:05;;;;;;;18.42;6.63;;;;;;;9.03;100.00;101343.72;5229515;28;20044;-63
2022/01/03 02:33:36;;;;;;;12.45;6.03;;;;;;;9.06;100.00;101354.88;5229366;28;20016;-63
2022/01/03 02:36:06;;;;;;;7.43;4.65;;;;;;;8.99;100.00;101356.84;5229509;28;20027;-68
2022/01/03 02:38:37;;;;;;;17.02;7.88;;;;;;;8.80;100.00;101326.50;5229220;28;20052;-66
2022/01/03 02:41:08;;;;;;;8.57;5.95;;;;;;;8.85;100.00;101350.06;5229086;28;20040;-64
2022/01/03 02:43:38;;;;;;;8.98;6.43;;;;;;;8.96;100.00;101348.41;5228862;28;20027;-64
2022/01/03 02:46:09;;;;;;;8.55;5.78;;;;;;;8.96;100.00;101356.50;5229261;28;20537;-63
2022/01/03 02:48:40;;;;;;;14.85;6.90;;;;;;;8.96;100.00;101356.50;5229128;28;20032;-64
2022/01/03 02:51:11;;;;;;;16.75;7.05;;;;;;;8.92;100.00;101342.69;5228973;28;20446;-64
2022/01/03 02:53:42;;;;;;;13.88;6.10;;;;;;;8.96;100.00;101356.50;5228846;28;20020;-64
2022/01/03 02:56:13;;;;;;;25.15;6.00;;;;;;;8.79;100.00;101318.66;5229301;28;20033;-65
2022/01/03 02:58:43;;;;;;;19.95;6.75;;;;;;;8.96;100.00;101351.09;5228994;28;20063;-63
2022/01/03 03:01:14;;;;;;;11.65;5.05;;;;;;;8.92;100.00;101336.50;5228980;28;20484;-63
2022/01/03 03:03:47;;;;;;;10.70;7.65;;;;;;;8.87;100.00;101339.88;5229172;28;20025;-64
2022/01/03 03:06:18;;;;;;;15.73;6.60;;;;;;;8.74;100.00;101332.00;5228655;28;20036;-63
2022/01/03 03:08:48;;;;;;;15.23;6.38;;;;;;;8.82;100.00;101358.59;5228976;28;20454;-64
2022/01/03 03:11:19;;;;;;;11.52;6.10;;;;;;;8.83;100.00;101359.41;5228684;28;20029;-64
2022/01/03 03:13:49;;;;;;;12.60;5.63;;;;;;;8.82;100.00;101352.38;5228918;28;20016;-64
2022/01/03 03:16:19;;;;;;;16.40;7.03;;;;;;;8.95;100.00;101362.97;5229412;28;20025;-64
2022/01/03 03:18:50;;;;;;;7.32;5.28;;;;;;;9.01;100.00;101359.31;5229189;28;20031;-63
2022/01/03 03:21:21;;;;;;;6.90;5.88;;;;;;;9.01;100.00;101353.91;5246679;28;20028;-63
2022/01/03 03:23:51;;;;;;;8.50;4.70;;;;;;;8.92;100.00;101360.72;5228761;28;20388;-64
2022/01/03 03:26:21;;;;;;;17.98;6.43;;;;;;;8.93;100.00;101362.38;5229862;28;20102;-64
2022/01/03 03:28:52;;;;;;;6.45;5.40;;;;;;;8.93;100.00;101365.06;5229646;28;20603;-66
2022/01/03 03:31:22;;;;;;;9.27;5.65;;;;;;;8.93;100.00;101360.50;5229099;28;20028;-64
2022/01/03 03:33:53;;;;;;;20.20;5.95;;;;;;;8.88;100.00;101359.53;5245810;28;20025;-62
2022/01/03 03:36:23;;;;;;;12.10;5.28;;;;;;;8.81;100.00;101351.56;5229176;28;20056;-63
2022/01/03 03:38:54;;;;;;;16.88;6.43;;;;;;;8.87;100.00;101349.81;5230047;28;20063;-64
2022/01/03 03:41:26;;;;;;;18.50;7.18;;;;;;;8.84;100.00;101344.91;5232920;28;20055;-64
2022/01/03 03:43:57;;;;;;;14.32;7.00;;;;;;;8.87;100.00;101347.94;5233037;28;20492;-64
2022/01/03 03:46:27;;;;;;;9.15;5.70;;;;;;;8.88;100.00;101352.28;5233020;28;20028;-64
2022/01/03 03:48:57;;;;;;;23.05;5.75;;;;;;;8.94;100.00;101355.94;5233020;28;20028;-64
2022/01/03 03:51:29;;;;;;;10.20;6.43;;;;;;;8.99;100.00;101346.06;5232875;28;20107;-64
2022/01/03 03:54:00;;;;;;;15.80;6.35;;;;;;;9.01;100.00;101351.22;5232236;28;20016;-64
2022/01/03 03:56:31;;;;;;;20.27;6.40;;;;;;;9.03;100.00;101352.63;5232890;28;20557;-64
2022/01/03 03:59:01;;;;;;;10.95;4.68;;;;;;;9.04;100.00;101353.47;5232468;28;20032;-64
2022/01/03 04:01:32;;;;;;;19.27;6.18;;;;;;;8.69;100.00;101278.03;5232813;28;20480;-64
2022/01/03 04:04:03;;;;;;;14.98;6.55;;;;;;;9.10;100.00;101341.75;5232652;28;20169;-64
2022/01/03 04:06:33;;;;;;;6.88;5.80;;;;;;;8.98;100.00;101311.28;5232427;28;20547;-64
2022/01/03 04:09:04;;;;;;;13.32;5.40;;;;;;;9.13;100.00;101333.19;5232549;28;20116;-63
2022/01/03 04:11:34;;;;;;;16.50;6.25;;;;;;;9.13;100.00;101335.91;5250174;28;20545;-64
2022/01/03 04:14:05;;;;;;;8.30;5.38;;;;;;;8.97;100.00;101299.69;5248882;28;20032;-63
2022/01/03 04:16:36;;;;;;;15.57;6.75;;;;;;;9.16;100.00;101335.44;5232231;28;20032;-62
2022/01/03 04:19:06;;;;;;;5.05;4.43;;;;;;;9.16;100.00;101318.44;5232123;28;20024;-64
2022/01/03 04:21:39;;;;;;;6.05;4.38;;;;;;;9.18;100.00;101322.53;5232264;28;20086;-64
2022/01/03 04:24:11;;;;;;;13.80;4.90;;;;;;;9.17;100.00;101323.59;5231546;28;20031;-63
2022/01/03 04:26:43;;;;;;;13.02;6.93;;;;;;;9.16;100.00;101327.34;5232385;28;20024;-64
2022/01/03 04:29:13;;;;;;;13.88;5.43;;;;;;;9.08;100.00;101317.75;5232173;28;20048;-63
2022/01/03 04:31:44;;;;;;;12.85;6.25;;;;;;;8.96;100.00;101305.31;5232187;28;20067;-64
2022/01/03 04:34:14;;;;;;;13.52;5.78;;;;;;;9.06;100.00;101321.72;5232169;28;20028;-64
2022/01/03 04:36:45;;;;;;;11.10;7.20;;;;;;;9.04;100.00;101318.44;5231976;28;20032;-62
2022/01/03 04:39:15;;;;;;;27.30;7.15;;;;;;;9.01;100.00;101329.69;5232244;28;20384;-63
2022/01/03 04:41:46;;;;;;;6.45;5.60;;;;;;;8.97;100.00;101328.50;5232277;28;20074;-64
2022/01/03 04:44:16;;;;;;;13.15;6.35;;;;;;;8.94;100.00;101312.84;5231897;28;20055;-64
2022/01/03 04:46:47;;;;;;;12.07;6.45;;;;;;;8.77;100.00;101291.16;5232236;28;20024;-64
2022/01/03 04:49:17;;;;;;;15.80;5.53;;;;;;;8.85;100.00;101304.28;5232091;28;20495;-66
2022/01/03 04:51:47;;;;;;;16.58;5.45;;;;;;;8.85;100.00;101300.75;5231556;28;20400;-63
2022/01/03 04:54:18;;;;;;;15.13;6.53;;;;;;;8.83;100.00;101294.78;5231839;28;20021;-63
2022/01/03 04:56:48;;;;;;;12.82;5.70;;;;;;;8.78;100.00;101300.88;5231888;28;20426;-63
2022/01/03 04:59:19;;;;;;;13.85;5.70;;;;;;;8.71;100.00;101302.84;5232060;28;20078;-64
2022/01/03 05:01:49;;;;;;;11.18;5.18;;;;;;;8.67;100.00;101310.56;5231003;28;20031;-64
2022/01/03 05:04:20;;;;;;;22.33;9.35;;;;;;;8.66;100.00;101303.53;5231409;28;20027;-64
2022/01/03 05:06:50;;;;;;;19.23;5.65;;;;;;;8.66;100.00;101306.22;5231292;28;20404;-62
2022/01/03 05:09:21;;;;;;;22.15;8.35;;;;;;;8.67;100.00;101298.97;5231268;28;20385;-64
2022/01/03 05:11:51;;;;;;;10.35;4.55;;;;;;;8.61;100.00;101303.44;5231676;28;20024;-64
2022/01/03 05:14:22;;;;;;;7.13;6.43;;;;;;;8.60;100.00;101301.78;5231129;28;20020;-64
2022/01/03 05:16:53;;;;;;;14.27;5.85;;;;;;;8.64;100.00;101291.38;5231041;28;20036;-64
2022/01/03 05:19:24;;;;;;;8.75;5.38;;;;;;;8.65;100.00;101290.34;5231607;28;20093;-63
2022/01/03 05:21:55;;;;;;;19.23;5.22;;;;;;;8.70;100.00;101298.50;5231412;28;20416;-62
2022/01/03 05:24:25;;;;;;;15.00;5.13;;;;;;;8.74;100.00;101294.31;5230784;28;20024;-63
2022/01/03 05:26:56;;;;;;;14.32;5.65;;;;;;;8.79;100.00;101292.56;5231274;28;20024;-63
2022/01/03 05:29:28;;;;;;;12.05;5.68;;;;;;;8.83;100.00;101275.94;5231201;28;20079;-64
2022/01/03 05:31:58;;;;;;;16.40;7.05;;;;;;;8.85;100.00;101274.66;5231254;28;20404;-64
2022/01/03 05:34:29;;;;;;;8.50;4.82;;;;;;;8.86;100.00;101270.09;5230573;28;20078;-64
2022/01/03 05:36:59;;;;;;;15.60;5.18;;;;;;;8.88;100.00;101274.19;5248808;28;20025;-66
2022/01/03 05:39:30;;;;;;;11.88;5.70;;;;;;;8.89;100.00;101275.81;5231295;28;20097;-64
2022/01/03 05:42:00;;;;;;;11.75;5.03;;;;;;;8.92;100.00;101286.13;5230986;28;20025;-63
2022/01/03 05:44:30;;;;;;;18.38;5.65;;;;;;;8.87;100.00;101271.72;5230721;28;20476;-63
2022/01/03 05:47:01;;;;;;;11.57;5.50;;;;;;;8.93;100.00;101282.38;5230102;28;20392;-64
2022/01/03 05:49:32;;;;;;;6.40;5.28;;;;;;;8.92;100.00;101279.94;5230406;28;20047;-64
2022/01/03 05:52:02;;;;;;;17.13;6.22;;;;;;;8.93;100.00;101286.94;5230118;28;20515;-64
2022/01/03 05:54:33;;;;;;;7.25;4.57;;;;;;;8.90;100.00;101272.06;5229665;28;20074;-62
2022/01/03 05:57:03;;;;;;;11.52;6.45;;;;;;;8.80;100.00;101252.97;5230343;28;20460;-63
2022/01/03 05:59:34;;;;;;;12.77;4.43;;;;;;;8.84;100.00;101254.16;5229838;28;20027;-64
2022/01/03 06:02:04;;;;;;;8.50;5.25;;;;;;;9.00;100.00;101276.84;5229355;28;20123;-64
2022/01/03 06:04:42;;;;;;;7.10;4.78;;;;;;;9.03;100.00;101287.16;5229991;28;20024;-64
2022/01/03 06:07:12;;;;;;;13.52;5.60;;;;;;;9.03;100.00;101277.22;5229909;28;20071;-64
2022/01/03 06:09:43;;;;;;;9.52;4.55;;;;;;;8.90;100.00;101255.91;5240577;22;20029;-55
2022/01/03 06:12:16;;;;;;;13.43;5.90;;;;;;;9.03;100.00;101265.59;5225518;28;20063;-56
2022/01/03 06:14:48;;;;;;;11.88;5.45;;;;;;;9.00;100.00;101274.16;5227733;28;20029;-56
2022/01/03 06:17:19;;;;;;;3.88;3.58;;;;;;;9.05;100.00;101269.72;5228442;28;20077;-60
2022/01/03 06:19:50;;;;;;;10.88;5.28;;;;;;;9.05;100.00;101268.88;5228348;28;20028;-57
2022/01/03 06:22:21;;;;;;;11.68;5.15;;;;;;;9.04;100.00;101259.16;5228242;28;20502;-57
2022/01/03 06:24:51;;;;;;;16.38;6.35;;;;;;;9.04;100.00;101251.09;5246474;28;20021;-57
2022/01/03 06:28:15;;;;;;;26.88;7.57;;;;;;;9.04;100.00;101251.91;5226577;28;20082;-58
2022/01/03 06:30:45;;;;;;;7.35;4.68;;;;;;;9.05;100.00;101247.34;5227643;28;20029;-59
2022/01/03 06:33:16;;;;;;;13.35;5.88;;;;;;;9.04;100.00;101249.22;5228049;28;20028;-58
2022/01/03 06:35:46;;;;;;;8.60;5.60;;;;;;;9.04;100.00;101246.53;5227983;28;20111;-57
2022/01/03 06:38:17;;;;;;;8.18;5.60;;;;;;;9.00;100.00;101237.28;5227944;28;20074;-57
2022/01/03 06:40:47;;;;;;;15.23;4.72;;;;;;;8.98;100.00;101234.00;5227993;28;20029;-57
2022/01/03 06:43:17;;;;;;;10.43;6.40;;;;;;;8.98;100.00;101225.09;5227824;28;20082;-58
2022/01/03 06:45:48;;;;;;;10.65;4.55;;;;;;;8.98;100.00;101235.88;5227995;28;20017;-59
2022/01/03 06:48:18;;;;;;;11.90;4.57;;;;;;;9.00;100.00;101244.53;5227947;28;20027;-59
2022/01/03 06:50:50;;;;;;;8.65;6.55;;;;;;;8.99;100.00;101237.50;5228016;28;20024;-57
2022/01/03 06:53:20;;;;;;;15.45;5.75;;;;;;;9.01;100.00;101238.09;5227790;28;20086;-57
2022/01/03 06:55:51;;;;;;;15.25;6.05;;;;;;;8.98;100.00;101241.25;5227587;28;20033;-60
2022/01/03 06:58:21;;;;;;;12.73;5.65;;;;;;;8.99;100.00;101245.59;5227875;28;20016;-59
2022/01/03 07:00:52;;;;;;;7.75;5.00;;;;;;;8.99;100.00;101242.88;5227851;28;20417;-58
2022/01/03 07:03:22;;;;;;;8.55;6.75;;;;;;;8.98;100.00;101242.06;5227911;28;20027;-58
2022/01/03 07:05:53;;;;;;;10.23;4.68;;;;;;;8.98;100.00;101231.28;5227899;28;20028;-61
2022/01/03 07:08:23;;;;;;;6.15;4.43;;;;;;;8.83;100.00;101205.91;5227577;28;20497;-61
2022/01/03 07:10:54;;;;;;;14.80;6.07;;;;;;;8.97;100.00;101245.00;5227549;28;20171;-60
2022/01/03 07:13:26;;;;;;;15.80;7.70;;;;;;;8.95;100.00;101252.53;5229814;28;20540;-62
2022/01/03 07:22:12;;;;;;;21.23;6.38;;;;;;;8.44;100.00;101189.41;5817511;22;20106;-83
2022/01/03 07:24:43;;;;;;;7.85;4.80;;;;;;;8.89;100.00;101256.97;5233309;28;20021;-83
2022/01/03 07:27:14;;;;;;;15.50;6.63;;;;;;;8.72;100.00;101240.69;5237064;28;20025;-83
2022/01/03 07:29:47;;;;;;;19.17;6.68;;;;;;;8.89;100.00;101258.84;5234954;28;20047;-82
2022/01/03 07:32:17;;;;;;;15.55;4.55;;;;;;;8.74;100.00;101240.44;5232863;28;20028;-82
2022/01/03 07:34:47;;;;;;;15.68;5.25;;;;;;;8.64;100.00;101222.22;5233624;28;20311;-82
2022/01/03 07:37:18;;;;;;;17.50;5.55;;;;;;;8.82;100.00;101258.97;5216120;28;20040;-82
2022/01/03 07:39:48;;;;;;;6.78;4.53;;;;;;;8.36;100.00;101197.84;5233426;28;20029;-82
2022/01/03 07:42:19;;;;;;;14.65;4.63;;;;;;;8.80;100.00;101261.88;5232987;28;20032;-82
2022/01/03 07:44:49;;;;;;;12.95;7.45;;;;;;;8.82;100.00;101258.13;5253309;22;20401;-56
2022/01/03 07:47:20;;;;;;;14.93;5.03;;;;;;;8.82;100.00;101264.34;5212113;28;20025;-59
2022/01/03 07:49:50;;;;;;;19.40;6.30;;;;;;;8.38;100.00;101190.34;5226146;22;20031;-83
2022/01/03 07:52:21;;;;;;;13.82;5.30;;;;;;;8.44;100.00;101213.63;5220839;28;20033;-83
2022/01/03 07:54:52;;;;;;;7.90;5.40;;;;;;;8.53;100.00;101223.00;5232294;28;20060;-83
2022/01/03 07:57:22;;;;;;;11.82;5.10;;;;;;;8.75;100.00;101256.38;5237722;28;20029;-83
2022/01/03 07:59:52;;;;;;;11.02;5.07;;;;;;;8.56;100.00;101222.56;5229192;28;20025;-82
2022/01/03 08:02:23;;;;;;;5.68;4.53;;;;;;;8.67;100.00;101240.56;5243997;28;20485;-83
2022/01/03 08:04:54;;;;;;;15.93;7.13;;;;;;;8.73;100.00;101241.50;5232815;28;20024;-82
2022/01/03 08:07:24;;;;;;;12.63;6.53;;;;;;;8.58;100.00;101212.38;5232739;28;20059;-83
2022/01/03 08:09:54;;;;;;;16.58;6.55;;;;;;;8.70;100.00;101223.13;5214503;28;20044;-83
2022/01/03 08:12:25;;;;;;;13.77;7.07;;;;;;;8.83;100.00;101232.84;5234156;28;20054;-83
2022/01/03 08:14:55;;;;;;;6.22;5.35;;;;;;;8.90;100.00;101249.72;5221547;28;20080;-84
2022/01/03 08:17:26;;;;;;;16.55;6.63;;;;;;;8.86;100.00;101241.28;5242110;28;20059;-83
2022/01/03 08:19:57;;;;;;;12.82;4.93;;;;;;;8.89;100.00;101223.84;5242810;28;20031;-84
2022/01/03 08:22:27;;;;;;;6.00;5.22;;;;;;;8.63;100.00;101196.34;5241065;28;20108;-84
2022/01/03 08:24:57;;;;;;;8.90;5.47;;;;;;;8.59;100.00;101189.78;5222935;28;20074;-84
2022/01/03 08:27:28;;;;;;;12.18;5.78;;;;;;;8.75;100.00;101209.78;5238797;28;20054;-85
2022/01/03 08:29:58;;;;;;;13.18;6.28;;;;;;;8.60;100.00;101191.44;5239570;28;20447;-85
2022/01/03 08:32:29;;;;;;;17.42;6.57;;;;;;;8.72;100.00;101229.91;5217953;28;20027;-85
2022/01/03 08:34:59;;;;;;;19.90;5.35;;;;;;;8.58;100.00;101215.06;5251132;28;20017;-84
2022/01/03 08:37:30;;;;;;;12.30;5.88;;;;;;;8.91;100.00;101257.56;5256181;28;20024;-84
2022/01/03 08:40:03;;;;;;;12.45;8.20;;;;;;;8.46;100.00;101171.16;5256519;28;20024;-84
2022/01/03 08:42:34;;;;;;;17.05;5.60;;;;;;;9.00;100.00;101253.44;5255036;28;20013;-85
2022/01/03 08:45:05;;;;;;;12.88;6.40;;;;;;;8.60;100.00;101179.84;5237386;28;20039;-84
2022/01/03 08:47:36;;;;;;;13.07;4.30;;;;;;;8.73;100.00;101211.88;5255365;28;20017;-84
2022/01/03 08:50:07;;;;;;;12.75;5.95;;;;;;;9.03;100.00;101250.28;5256891;28;20036;-84
2022/01/03 08:52:38;;;;;;;17.50;6.75;;;;;;;9.11;100.00;101267.94;5257050;28;20367;-84
2022/01/03 08:55:08;;;;;;;19.77;5.50;;;;;;;9.02;100.00;101243.25;5236845;28;20020;-84
2022/01/03 08:57:40;;;;;;;8.95;4.55;;;;;;;9.18;100.00;101249.78;5239052;28;20050;-85
2022/01/03 09:00:11;;;;;;;14.18;5.38;;;;;;;9.29;100.00;101269.66;5256092;28;20074;-85
2022/01/03 09:02:42;;;;;;;14.73;6.68;;;;;;;9.33;100.00;101268.16;5255021;28;20025;-84
2022/01/03 09:05:12;;;;;;;9.77;5.47;;;;;;;9.02;100.00;101200.13;5255081;28;20039;-85
2022/01/03 09:07:42;;;;;;;18.95;5.32;;;;;;;8.70;100.00;101143.16;5237048;28;20031;-84
2022/01/03 09:10:13;;;;;;;18.52;6.65;;;;;;;9.22;100.00;101223.19;5237652;28;20104;-84
2022/01/03 09:12:43;;;;;;;10.77;5.00;;;;;;;9.26;100.00;101256.66;5254757;28;20028;-84
2022/01/03 09:15:14;;;;;;;11.10;5.65;;;;;;;9.25;100.00;101245.06;5238870;28;20039;-84
2022/01/03 09:17:45;;;;;;;7.00;4.75;;;;;;;8.93;100.00;101190.00;5256496;28;20024;-83
2022/01/03 09:20:16;;;;;;;16.75;5.35;;;;;;;9.28;100.00;101255.38;5239102;28;20486;-84
2022/01/03 09:22:49;;;;;;;12.25;5.80;;;;;;;9.09;100.00;101211.63;5254693;28;20029;-84
2022/01/03 09:31:37;;;;;;;17.92;7.55;;;;;;;9.14;100.00;101208.22;5256542;28;20082;-83
2022/01/03 09:34:08;;;;;;;14.02;6.72;;;;;;;9.14;100.00;101195.56;5215623;28;20036;-83
2022/01/03 09:36:38;;;;;;;19.73;6.43;;;;;;;8.88;100.00;101174.53;5238939;28;20024;-84
2022/01/03 09:39:09;;;;;;;11.07;7.07;;;;;;;9.27;100.00;101225.97;5257433;28;20456;-83
2022/01/03 09:41:57;;;;;;;16.70;5.20;;;;;;;9.41;100.00;101236.25;5267737;22;20047;-62
2022/01/03 09:44:30;;;;;;;14.32;5.20;;;;;;;9.45;100.00;101232.03;5208517;28;20048;-62
2022/01/03 09:47:04;;;;;;;8.80;6.10;;;;;;;9.47;100.00;101243.41;5207482;28;20021;-62
2022/01/03 09:49:38;;;;;;;18.58;6.07;;;;;;;9.46;100.00;101230.16;5208065;28;20503;-62
2022/01/03 09:52:08;;;;;;;7.03;4.85;;;;;;;9.45;100.00;101234.72;5207923;28;20033;-62
2022/01/03 09:54:40;;;;;;;12.65;7.38;;;;;;;9.37;100.00;101208.13;5207524;28;20024;-62
2022/01/03 09:57:13;;;;;;;12.27;6.28;;;;;;;9.46;100.00;101228.28;5208119;28;20497;-62
2022/01/03 09:59:44;;;;;;;7.78;5.35;;;;;;;9.44;100.00;101214.22;5207936;28;20075;-62
2022/01/03 10:02:17;;;;;;;13.50;6.05;;;;;;;9.50;100.00;101219.72;5207964;28;20037;-62
2022/01/03 10:04:48;;;;;;;14.07;5.68;;;;;;;9.51;100.00;101213.25;5207651;28;20020;-62
2022/01/03 10:07:19;;;;;;;6.05;4.43;;;;;;;9.57;100.00;101212.28;5207764;28;20103;-62
2022/01/03 10:09:51;;;;;;;19.58;6.40;;;;;;;9.62;100.00;101202.41;5213880;28;20063;-62
2022/01/03 10:12:21;;;;;;;18.65;6.93;;;;;;;9.68;100.00;101209.53;5228445;28;20115;-62
2022/01/03 10:14:52;;;;;;;17.48;6.30;;;;;;;9.74;100.00;101191.59;5228194;28;20081;-62
2022/01/03 10:17:22;;;;;;;9.85;6.30;;;;;;;9.70;100.00;101180.47;5228470;28;20029;-63
2022/01/03 10:19:58;;;;;;;10.90;7.72;;;;;;;9.76;100.00;101186.78;5228759;28;20484;-63
2022/01/03 10:22:31;;;;;;;9.07;4.28;;;;;;;9.89;100.00;101215.31;5247022;28;20032;-63
2022/01/03 10:25:23;;;;;;;7.10;5.18;;;;;;;9.92;100.00;101210.25;5228624;28;20054;-63
2022/01/03 10:27:56;;;;;;;6.13;4.63;;;;;;;9.93;100.00;101205.66;5228048;28;20059;-63
2022/01/03 10:30:40;;;;;;;17.60;5.63;;;;;;;9.87;100.00;101206.63;5228541;28;20484;-63
2022/01/03 10:33:17;;;;;;;8.15;3.55;;;;;;;9.79;100.00;101197.91;5228560;28;20083;-63
2022/01/03 10:35:51;;;;;;;11.15;5.90;;;;;;;9.83;100.00;101201.72;5228616;28;20392;-63
2022/01/03 10:38:44;;;;;;;9.10;5.65;;;;;;;9.64;100.00;101175.22;5228449;28;20464;-63
2022/01/03 10:41:18;;;;;;;10.88;4.72;;;;;;;9.88;100.00;101187.50;5228931;28;20043;-62
2022/01/03 10:43:58;;;;;;;13.13;6.15;;;;;;;9.89;100.00;101193.72;5229069;28;20028;-63
2022/01/03 10:46:34;;;;;;;12.70;6.85;;;;;;;9.79;100.00;101173.63;5228963;28;20082;-62
2022/01/03 10:49:18;;;;;;;37.33;6.25;;;;;;;9.80;100.00;101177.97;5249481;28;20075;-63
2022/01/03 10:51:48;;;;;;;9.18;6.78;;;;;;;9.85;100.00;101171.00;5233240;28;20422;-63
2022/01/03 10:54:19;;;;;;;9.98;6.32;;;;;;;9.88;100.00;101175.91;5233356;28;20090;-63
2022/01/03 10:56:50;;;;;;;8.32;4.82;;;;;;;9.88;100.00;101165.09;5233085;28;20031;-63
2022/01/03 10:59:25;;;;;;;10.25;4.53;;;;;;;9.91;100.00;101151.13;5232968;28;20074;-63
2022/01/03 11:02:07;;;;;;;7.30;5.72;;;;;;;9.87;100.00;101149.97;5230707;28;20029;-63
2022/01/03 11:13:12;;;;;;;7.97;4.82;;;;;;;9.85;100.00;101154.81;5209873;28;20084;-63
2022/01/03 11:15:53;;;;;;;9.63;5.15;;;;;;;9.86;100.00;101154.56;5191982;28;20121;-63
2022/01/03 11:18:47;;;;;;;17.17;5.70;;;;;;;9.53;100.00;101108.69;5191925;28;20022;-63
2022/01/03 11:21:21;;;;;;;9.77;4.70;;;;;;;9.80;100.00;101131.28;5198635;28;20460;-63
2022/01/03 11:24:03;;;;;;;6.45;4.63;;;;;;;9.80;100.00;101137.50;5191684;28;20021;-63
2022/01/03 11:26:33;;;;;;;8.63;4.93;;;;;;;9.81;100.00;101141.00;5192274;28;20036;-61
2022/01/03 11:29:04;;;;;;;13.10;6.00;;;;;;;9.77;100.00;101127.19;5192367;28;20072;-63
2022/01/03 11:31:38;;;;;;;13.85;6.13;;;;;;;9.59;100.00;101091.53;5191459;28;20041;-63
2022/01/03 11:34:11;;;;;;;8.95;5.10;;;;;;;9.64;100.00;101111.31;5191439;28;20481;-63
2022/01/03 11:36:41;;;;;;;12.82;5.70;;;;;;;9.72;100.00;101120.88;5209353;28;20029;-63
2022/01/03 11:39:13;;;;;;;14.77;5.38;;;;;;;9.71;100.00;101132.75;5191716;28;20029;-61
2022/01/03 11:41:44;;;;;;;7.55;5.05;;;;;;;9.65;100.00;101120.22;5191351;28;20037;-64
2022/01/03 11:44:16;;;;;;;15.90;5.93;;;;;;;9.44;100.00;101095.59;5191937;28;20018;-62
2022/01/03 11:46:47;;;;;;;9.35;5.43;;;;;;;9.45;100.00;101108.03;5191723;28;20097;-66
2022/01/03 11:49:19;;;;;;;10.48;6.68;;;;;;;9.53;100.00;101122.19;5196734;28;20388;-63
2022/01/03 11:51:51;;;;;;;12.18;4.63;;;;;;;9.56;100.00;101114.41;5232836;28;20029;-63
2022/01/03 11:54:22;;;;;;;18.88;6.32;;;;;;;9.57;100.00;101121.44;5232463;28;20025;-63
2022/01/03 11:57:13;;;;;;;13.32;6.68;;;;;;;9.60;100.00;101109.34;5233117;28;20036;-63
2022/01/03 12:03:37;;;;;;;23.63;6.88;;;;;;;9.65;100.00;101102.16;5248136;28;20032;-63
2022/01/03 12:06:09;;;;;;;11.43;6.78;;;;;;;9.66;100.00;101113.78;5201561;28;20478;-63
2022/01/03 12:08:40;;;;;;;13.02;8.40;;;;;;;9.57;100.00;101105.25;5211368;28;20024;-63
2022/01/03 12:11:19;;;;;;;11.05;6.22;;;;;;;9.50;100.00;101109.19;5213244;28;20033;-63